Decoded Metar for UHBB (BLAGOVESCHENSK in RUSSIA) (IATA:BQS) | Meteo·Mobile Aviation Weather
aviador You're here:

UHBB Decoded Metar

BLAGOVESCHENSK in RUSSIA
Report Time2018-12-16 15:00:00
UTC Time2018-12-16 15:23:40
Flight Rules vfr VFR
Wind070° at 2 kt
W.Decomp.*RWY 36: 0.3 kt HW 2.0 kt RCW
W.Rank070° ranks 27
Current wind is below 070° avg. (5.6)
Visibility8000 m
Phenomena:N/A
Clouds:N/A
Expected CloudBase > 800 ft AGL from Temp-Dew spread
CeilingNone
Temp-25°C (ISA -39)
Dew Point-27°C (83% RH)
AAT-29.5°C
QNH1009 hPa
Density Alt-4,222 ft
Elevation640 ft
Report Wrong Elevation
Raw Report
METAR UHBB 161500Z 07001MPS 8000 NSC M25/M27 Q1009 R36/410260 NOSIG
RMK QFE739/0985=

Extra information for UHBB:More info

Metar Taf Metar & Taf Last 4 Metars F.Rules Stats Wind Profile Meteogram Temp Stats Airport Information Weather charts Add Link Nearby VenuesMetar ALERT Operation Metar Decoded Social comments